Time;durP1;ratioP1;P1;durP2;ratioP2;P2;SDS_P1;SDS_P2;PMS_P1;PMS_P2;Temp;Humidity;BMP_temperature;BMP_pressure;BME280_temperature;BME280_humidity;BME280_pressure;Samples;Min_cycle;Max_cycle;Signal;HPM_P1;HPM_P2
2022/11/13 00:00:53;;;;;;;29.83;19.60;;;;;;;-145.18;100.00;46668.22;5010872;28;20302;-69
2022/11/13 00:03:18;;;;;;;26.63;18.63;;;;;;;-145.18;100.00;46676.03;5010753;28;20471;-69
2022/11/13 00:05:43;;;;;;;28.50;19.13;;;;;;;-145.18;100.00;46670.16;5010951;28;20042;-69
2022/11/13 00:08:09;;;;;;;30.10;18.93;;;;;;;-145.18;100.00;46672.13;5010558;28;20440;-69
2022/11/13 00:10:34;;;;;;;27.07;18.27;;;;;;;-145.18;100.00;46674.06;4992991;28;20033;-69
2022/11/13 00:13:00;;;;;;;37.73;19.87;;;;;;;-145.18;100.00;46672.13;5010515;28;20177;-69
2022/11/13 00:15:25;;;;;;;25.47;17.87;;;;;;;-145.18;100.00;46668.22;5011058;28;20037;-69
2022/11/13 00:17:50;;;;;;;23.57;16.17;;;;;;;-145.18;100.00;46677.97;5010615;28;20045;-69
2022/11/13 00:20:17;;;;;;;21.13;15.47;;;;;;;-145.18;100.00;46674.06;5010365;28;20057;-69
2022/11/13 00:22:43;;;;;;;22.70;16.03;;;;;;;-145.18;100.00;46670.16;5010650;28;20509;-69
2022/11/13 00:25:08;;;;;;;27.87;16.07;;;;;;;-145.18;100.00;46666.25;5010465;28;20276;-69
2022/11/13 00:27:34;;;;;;;23.63;15.53;;;;;;;-145.18;100.00;46679.94;5010654;28;20113;-69
2022/11/13 00:29:59;;;;;;;33.10;16.33;;;;;;;-145.18;100.00;46677.97;4992924;28;20578;-69
2022/11/13 00:32:25;;;;;;;23.00;15.37;;;;;;;-145.18;100.00;46676.03;5010370;28;20038;-69
2022/11/13 00:34:51;;;;;;;21.30;14.73;;;;;;;-145.18;100.00;46670.16;4992861;28;20029;-69
2022/11/13 00:37:16;;;;;;;24.23;14.77;;;;;;;-145.18;100.00;46674.06;5010345;28;20278;-69
2022/11/13 00:39:42;;;;;;;21.23;15.30;;;;;;;-145.18;100.00;46672.13;5010461;28;20034;-69
2022/11/13 00:42:07;;;;;;;23.60;14.73;;;;;;;-145.18;100.00;46672.13;5010173;28;20038;-69
2022/11/13 00:44:32;;;;;;;24.90;14.90;;;;;;;-145.18;100.00;46681.88;5010276;28;20112;-69
2022/11/13 00:46:57;;;;;;;20.17;14.03;;;;;;;-145.18;100.00;46668.22;5010040;28;20068;-69
2022/11/13 00:49:23;;;;;;;22.93;14.30;;;;;;;-145.18;100.00;46674.06;5010370;28;20130;-69
2022/11/13 00:51:48;;;;;;;23.87;14.03;;;;;;;-145.18;100.00;46676.03;5010332;28;20091;-69
2022/11/13 00:54:14;;;;;;;25.53;15.30;;;;;;;-145.18;100.00;46681.88;5010107;28;20447;-69
2022/11/13 00:56:39;;;;;;;20.97;13.87;;;;;;;-145.18;100.00;46674.06;5009784;28;20030;-69
2022/11/13 00:59:04;;;;;;;22.93;15.50;;;;;;;-145.18;100.00;46677.97;5010323;28;20034;-69
2022/11/13 01:01:30;;;;;;;19.57;13.53;;;;;;;-145.18;100.00;46676.03;5009919;28;20053;-69
2022/11/13 01:03:55;;;;;;;25.00;14.87;;;;;;;-145.18;100.00;46677.97;5009838;28;20033;-69
2022/11/13 01:06:24;;;;;;;24.63;13.87;;;;;;;-145.18;100.00;46676.03;5009573;28;20077;-69
2022/11/13 01:08:52;;;;;;;20.00;14.10;;;;;;;-145.18;100.00;46676.03;5012133;28;20026;-69
2022/11/13 01:11:20;;;;;;;19.87;13.20;;;;;;;-145.18;100.00;46679.94;5013914;28;20688;-69
2022/11/13 01:13:48;;;;;;;21.80;15.00;;;;;;;-145.18;100.00;46674.06;4996499;28;20272;-69
2022/11/13 01:16:16;;;;;;;20.93;13.37;;;;;;;-145.18;100.00;46674.06;5013770;28;20358;-69
2022/11/13 01:18:42;;;;;;;18.80;13.37;;;;;;;-145.18;100.00;46679.94;5013897;28;20277;-69
2022/11/13 01:21:19;;;;;;;21.57;14.17;;;;;;;-145.18;100.00;46674.06;5013765;28;20783;-69
2022/11/13 01:23:46;;;;;;;16.07;11.50;;;;;;;-145.18;100.00;46672.13;4996466;28;20120;-69
2022/11/13 01:26:13;;;;;;;20.70;12.73;;;;;;;-145.18;100.00;46672.13;5013712;28;20321;-69
2022/11/13 01:28:39;;;;;;;21.63;12.80;;;;;;;-145.18;100.00;46674.06;5013899;28;20272;-69
2022/11/13 01:31:06;;;;;;;17.83;13.13;;;;;;;-145.18;100.00;46676.03;5013429;28;20271;-69
2022/11/13 01:33:32;;;;;;;19.33;13.63;;;;;;;-145.18;100.00;46677.97;5013747;28;20314;-69
2022/11/13 01:36:04;;;;;;;18.33;12.57;;;;;;;-145.18;100.00;46685.78;5013435;28;20357;-69
2022/11/13 01:38:30;;;;;;;19.67;12.93;;;;;;;-145.18;100.00;46672.13;5013685;28;20030;-69
2022/11/13 01:40:55;;;;;;;21.30;13.97;;;;;;;-145.18;100.00;46679.94;5013211;28;20283;-69
2022/11/13 01:43:31;;;;;;;25.50;13.93;;;;;;;-145.18;100.00;46681.88;5013259;28;20406;-69
2022/11/13 01:45:56;;;;;;;21.73;13.75;;;;;;;-145.18;100.00;46674.06;5013644;28;20034;-69
2022/11/13 01:48:22;;;;;;;21.30;13.40;;;;;;;-145.18;100.00;46676.03;5013090;28;20041;-69
2022/11/13 01:50:47;;;;;;;19.80;14.40;;;;;;;-145.18;100.00;46676.03;5013431;28;20386;-69
2022/11/13 01:53:13;;;;;;;20.80;13.80;;;;;;;-145.18;100.00;46676.03;5012906;28;20579;-68
2022/11/13 01:55:38;;;;;;;20.50;13.87;;;;;;;-145.18;100.00;46679.94;5013079;28;20073;-69
2022/11/13 01:58:07;;;;;;;22.33;14.50;;;;;;;-145.18;100.00;46679.94;5012750;28;20069;-69
2022/11/13 02:00:33;;;;;;;20.73;13.90;;;;;;;-145.18;100.00;46679.94;5013283;28;20034;-69
2022/11/13 02:02:58;;;;;;;18.50;13.30;;;;;;;-145.18;100.00;46679.94;5012595;28;20275;-69
2022/11/13 02:05:23;;;;;;;19.77;13.70;;;;;;;-145.18;100.00;46685.78;5012886;28;20029;-69
2022/11/13 02:07:49;;;;;;;21.57;13.93;;;;;;;-145.18;100.00;46679.94;5013049;28;20045;-69
2022/11/13 02:10:14;;;;;;;30.87;13.93;;;;;;;-145.18;100.00;46687.75;5012576;28;20073;-69
2022/11/13 02:12:45;;;;;;;24.50;13.27;;;;;;;-145.18;100.00;46677.97;5012947;28;20029;-69
2022/11/13 02:15:11;;;;;;;18.80;13.10;;;;;;;-145.18;100.00;46676.03;5012728;28;20117;-69
2022/11/13 02:17:46;;;;;;;22.37;13.57;;;;;;;-145.18;100.00;46681.88;5012502;28;20362;-69
2022/11/13 02:20:12;;;;;;;24.77;13.88;;;;;;;-145.18;100.00;46674.06;5012376;28;20401;-69
2022/11/13 02:22:59;;;;;;;19.90;12.70;;;;;;;-145.18;100.00;46679.94;5012679;28;20037;-69
2022/11/13 02:25:26;;;;;;;19.95;13.50;;;;;;;-145.18;100.00;46679.94;5012647;28;20748;-69
2022/11/13 02:27:52;;;;;;;20.90;13.93;;;;;;;-145.18;100.00;46683.84;5011957;28;20038;-68
2022/11/13 02:30:19;;;;;;;18.47;13.43;;;;;;;-145.18;100.00;46674.06;5012537;28;20271;-68
2022/11/13 02:32:48;;;;;;;22.57;13.00;;;;;;;-145.18;100.00;46677.97;5012426;28;20026;-68
2022/11/13 02:35:18;;;;;;;21.50;13.57;;;;;;;-145.18;100.00;46676.03;5012285;28;20358;-68
2022/11/13 02:37:44;;;;;;;24.27;14.27;;;;;;;-145.18;100.00;46676.03;5012353;28;20378;-69
2022/11/13 02:40:09;;;;;;;18.60;12.73;;;;;;;-145.18;100.00;46676.03;5012048;28;20736;-68
2022/11/13 02:42:35;;;;;;;18.63;12.37;;;;;;;-145.18;100.00;46676.03;5011899;28;20042;-68
2022/11/13 02:45:00;;;;;;;24.60;13.50;;;;;;;-145.18;100.00;46676.03;5012046;28;20061;-69
2022/11/13 02:47:27;;;;;;;20.57;13.37;;;;;;;-145.18;100.00;46674.06;5012148;28;20405;-69
2022/11/13 02:49:52;;;;;;;20.00;12.47;;;;;;;-145.18;100.00;46677.97;5012133;28;20030;-69
2022/11/13 02:52:17;;;;;;;19.43;13.27;;;;;;;-145.18;100.00;46677.97;5011848;28;20349;-69
2022/11/13 02:54:43;;;;;;;18.60;12.23;;;;;;;-145.18;100.00;46676.03;5012041;28;20509;-69
2022/11/13 02:57:08;;;;;;;19.90;12.00;;;;;;;-145.18;100.00;46679.94;5011665;28;20034;-69
2022/11/13 02:59:33;;;;;;;16.10;10.97;;;;;;;-145.18;100.00;46676.03;5011894;28;20117;-69
2022/11/13 03:01:59;;;;;;;22.53;11.50;;;;;;;-145.18;100.00;46676.03;5463112;23;20042;-68
2022/11/13 03:04:24;;;;;;;20.23;11.70;;;;;;;-145.18;100.00;46676.03;5018294;28;20033;-68
2022/11/13 03:06:49;;;;;;;19.80;13.10;;;;;;;-145.18;100.00;46677.97;5031286;28;20417;-68
2022/11/13 03:09:15;;;;;;;20.33;12.17;;;;;;;-145.18;100.00;46687.75;5031555;28;20044;-68
2022/11/13 03:11:42;;;;;;;17.07;11.87;;;;;;;-145.18;100.00;46677.97;5027621;28;20033;-68
2022/11/13 03:14:08;;;;;;;19.50;11.57;;;;;;;-145.18;100.00;46679.94;5017905;28;20029;-68
2022/11/13 03:16:34;;;;;;;19.40;11.90;;;;;;;-145.18;100.00;46674.06;5019544;28;20626;-68
2022/11/13 03:18:59;;;;;;;13.30;10.23;;;;;;;-145.18;100.00;46676.03;5011261;28;20102;-68
2022/11/13 03:21:25;;;;;;;17.50;11.67;;;;;;;-145.18;100.00;46676.03;5011610;28;20303;-68
2022/11/13 03:23:50;;;;;;;18.83;11.47;;;;;;;-145.18;100.00;46679.94;5011462;28;20037;-67
2022/11/13 03:26:16;;;;;;;16.20;11.80;;;;;;;-145.18;100.00;46683.84;5011430;28;20485;-67
2022/11/13 03:28:42;;;;;;;20.57;10.97;;;;;;;-145.18;100.00;46683.84;5011117;28;20022;-68
2022/11/13 03:31:07;;;;;;;20.33;11.47;;;;;;;-145.18;100.00;46683.84;5011034;28;20274;-68
2022/11/13 03:33:33;;;;;;;19.77;10.93;;;;;;;-145.18;100.00;46676.03;5011791;28;20037;-67
2022/11/13 03:35:59;;;;;;;19.13;10.70;;;;;;;-145.18;100.00;46683.84;5010973;28;20041;-67
2022/11/13 03:38:24;;;;;;;23.17;12.00;;;;;;;-145.18;100.00;46691.66;5011495;28;20500;-68
2022/11/13 03:40:50;;;;;;;16.97;10.90;;;;;;;-145.18;100.00;46691.66;5011016;28;20038;-67
2022/11/13 03:43:16;;;;;;;20.17;12.40;;;;;;;-145.18;100.00;46685.78;5010920;28;20109;-68
2022/11/13 03:45:45;;;;;;;16.93;11.27;;;;;;;-145.18;100.00;46691.66;5011095;28;20454;-68
2022/11/13 03:48:10;;;;;;;16.13;11.53;;;;;;;-145.18;100.00;46687.75;5011329;28;20029;-68
2022/11/13 03:50:36;;;;;;;19.57;12.27;;;;;;;-145.18;100.00;46691.66;5022645;28;20751;-67
2022/11/13 03:53:01;;;;;;;19.30;10.83;;;;;;;-145.18;100.00;46689.69;5030470;28;20033;-68
2022/11/13 03:55:26;;;;;;;18.93;12.27;;;;;;;-145.18;100.00;46691.66;5029837;28;20033;-68
2022/11/13 03:57:52;;;;;;;18.33;11.17;;;;;;;-145.18;100.00;46691.66;5030255;28;20172;-67
2022/11/13 04:00:17;;;;;;;20.17;12.03;;;;;;;-145.18;100.00;46689.69;5030789;28;20092;-67
2022/11/13 04:02:43;;;;;;;18.53;12.30;;;;;;;-145.18;100.00;46689.69;5030225;28;20136;-68
2022/11/13 04:05:08;;;;;;;18.00;11.40;;;;;;;-145.18;100.00;46689.69;5030701;28;20061;-68
2022/11/13 04:07:34;;;;;;;17.73;12.07;;;;;;;-145.18;100.00;46679.94;5030471;28;20033;-67
2022/11/13 04:09:59;;;;;;;17.47;11.73;;;;;;;-145.18;100.00;46695.56;5030560;28;20821;-68
2022/11/13 04:12:24;;;;;;;14.63;10.67;;;;;;;-145.18;100.00;46689.69;5024389;28;20042;-68
2022/11/13 04:14:50;;;;;;;17.73;11.70;;;;;;;-145.18;100.00;46689.69;5010155;28;20034;-68
2022/11/13 04:17:15;;;;;;;17.07;10.10;;;;;;;-145.18;100.00;46691.66;5010579;28;20034;-68
2022/11/13 04:19:41;;;;;;;17.13;10.37;;;;;;;-145.18;100.00;46697.50;5010469;28;20117;-67
2022/11/13 04:22:06;;;;;;;13.17;9.37;;;;;;;-145.18;100.00;46689.69;5010527;28;20037;-68
2022/11/13 04:24:32;;;;;;;18.77;10.07;;;;;;;-145.18;100.00;46691.66;5010750;28;20402;-68
2022/11/13 04:26:57;;;;;;;17.93;9.90;;;;;;;-145.18;100.00;46699.47;5010110;28;20083;-68
2022/11/13 04:29:22;;;;;;;15.37;10.10;;;;;;;-145.18;100.00;46701.41;5010645;28;20379;-68
2022/11/13 04:31:48;;;;;;;15.67;10.37;;;;;;;-145.18;100.00;46709.22;5010408;28;20065;-68
2022/11/13 04:34:13;;;;;;;14.43;10.33;;;;;;;-145.18;100.00;46705.31;5010499;28;20477;-67
2022/11/13 04:36:38;;;;;;;16.27;9.70;;;;;;;-145.18;100.00;46703.38;5010346;28;20049;-68
2022/11/13 04:39:04;;;;;;;15.27;9.83;;;;;;;-145.18;100.00;46701.41;5010345;28;20025;-68
2022/11/13 04:44:14;;;;;;;14.77;9.73;;;;;;;-145.18;100.00;46709.22;5010333;28;20096;-68
2022/11/13 04:46:39;;;;;;;13.40;9.93;;;;;;;-145.18;100.00;46707.28;5010412;28;20272;-68
2022/11/13 04:49:05;;;;;;;12.40;9.27;;;;;;;-145.18;100.00;46713.13;5010065;28;20433;-68
2022/11/13 04:51:30;;;;;;;14.60;9.63;;;;;;;-145.18;100.00;46705.31;5010520;28;20064;-68
2022/11/13 04:53:56;;;;;;;13.87;8.73;;;;;;;-145.18;100.00;46705.31;5009920;28;20133;-68
2022/11/13 04:56:21;;;;;;;15.00;10.03;;;;;;;-145.18;100.00;46709.22;5010235;28;20026;-68
2022/11/13 04:58:46;;;;;;;15.87;9.70;;;;;;;-145.18;100.00;46703.38;5009957;28;20464;-67
2022/11/13 05:01:12;;;;;;;15.87;10.00;;;;;;;-145.18;100.00;46713.13;5008762;28;20034;-68
2022/11/13 05:03:37;;;;;;;14.73;9.43;;;;;;;-145.18;100.00;46711.19;5009809;28;20190;-67
2022/11/13 05:06:08;;;;;;;18.03;10.13;;;;;;;-145.18;100.00;46707.28;5010058;28;20038;-67
2022/11/13 05:08:33;;;;;;;12.97;9.50;;;;;;;-145.18;100.00;46711.19;5010102;28;20034;-67
2022/11/13 05:11:00;;;;;;;15.93;9.73;;;;;;;-145.18;100.00;46707.28;5009951;28;20271;-68
2022/11/13 05:13:29;;;;;;;16.30;10.27;;;;;;;-145.18;100.00;46709.22;4991974;28;20014;-67
2022/11/13 05:16:06;;;;;;;14.77;9.63;;;;;;;-145.18;100.00;46707.28;5010285;28;20639;-68
2022/11/13 05:18:33;;;;;;;15.60;10.03;;;;;;;-145.18;100.00;46709.22;5009705;28;20299;-68
2022/11/13 05:20:59;;;;;;;11.97;8.93;;;;;;;-145.18;100.00;46709.22;5014197;28;20397;-68
2022/11/13 05:23:25;;;;;;;15.30;9.50;;;;;;;-145.18;100.00;46707.28;5029611;28;20350;-67
2022/11/13 05:25:51;;;;;;;14.97;9.60;;;;;;;-145.18;100.00;46709.22;5029632;28;20025;-68
2022/11/13 05:28:16;;;;;;;14.13;9.37;;;;;;;-145.18;100.00;46713.13;5029454;28;20662;-68
2022/11/13 05:30:42;;;;;;;16.27;9.13;;;;;;;-145.18;100.00;46713.13;5029627;28;20041;-68
2022/11/13 05:33:07;;;;;;;12.93;9.13;;;;;;;-145.18;100.00;46709.22;5029802;28;20405;-68
2022/11/13 05:35:33;;;;;;;15.83;9.10;;;;;;;-145.18;100.00;46717.03;5029634;28;20029;-68
2022/11/13 05:38:01;;;;;;;11.37;8.80;;;;;;;-145.18;100.00;46715.09;5029350;28;20030;-68
2022/11/13 05:40:28;;;;;;;15.40;9.47;;;;;;;-145.18;100.00;46719.00;5029430;28;20497;-68
2022/11/13 05:42:54;;;;;;;12.50;8.63;;;;;;;-145.18;100.00;46713.13;5029423;28;20270;-70
2022/11/13 05:45:19;;;;;;;12.77;9.00;;;;;;;-145.18;100.00;46715.09;5029656;28;20791;-68
2022/11/13 05:47:44;;;;;;;12.07;8.60;;;;;;;-145.18;100.00;46711.19;5029175;28;20316;-68
2022/11/13 05:50:10;;;;;;;12.63;8.87;;;;;;;-145.18;100.00;46719.00;5029732;28;20030;-68
2022/11/13 05:52:35;;;;;;;11.83;8.33;;;;;;;-145.18;100.00;46719.00;5029529;28;20064;-68
2022/11/13 05:55:00;;;;;;;12.97;8.80;;;;;;;-145.18;100.00;46715.09;5031363;28;20056;-68
2022/11/13 05:57:26;;;;;;;13.47;8.43;;;;;;;-145.18;100.00;46717.03;5033193;28;20073;-68
2022/11/13 05:59:51;;;;;;;13.63;8.77;;;;;;;-145.18;100.00;46711.19;5031728;28;20029;-68
2022/11/13 06:02:16;;;;;;;15.90;9.30;;;;;;;-145.18;100.00;46711.19;5024351;28;20433;-68
2022/11/13 06:04:42;;;;;;;11.37;8.57;;;;;;;-145.18;100.00;46713.13;5013160;28;20033;-68
2022/11/13 06:07:07;;;;;;;11.57;8.57;;;;;;;-145.18;100.00;46715.09;5013286;28;20570;-68
2022/11/13 06:09:32;;;;;;;11.77;7.83;;;;;;;-145.18;100.00;46713.13;5012729;28;20033;-68
2022/11/13 06:11:58;;;;;;;14.30;9.13;;;;;;;-145.18;100.00;46711.19;5012706;28;20030;-67
2022/11/13 06:14:23;;;;;;;13.67;9.13;;;;;;;-145.18;100.00;46715.09;5012989;28;20088;-67
2022/11/13 06:16:49;;;;;;;12.67;8.50;;;;;;;-145.18;100.00;46715.09;5012898;28;20056;-67
2022/11/13 06:19:14;;;;;;;13.67;9.00;;;;;;;-145.18;100.00;46711.19;5012893;28;20120;-68
2022/11/13 06:21:40;;;;;;;20.37;9.47;;;;;;;-145.18;100.00;46715.09;5019756;28;20623;-67
2022/11/13 06:24:07;;;;;;;13.30;8.67;;;;;;;-145.18;100.00;46717.03;5031835;28;20449;-67
2022/11/13 06:26:34;;;;;;;17.07;9.60;;;;;;;-145.18;100.00;46713.13;5013867;28;20418;-67
2022/11/13 06:29:01;;;;;;;12.90;8.67;;;;;;;-145.18;100.00;46713.13;5021062;28;20760;-67
2022/11/13 06:31:29;;;;;;;13.00;8.87;;;;;;;-145.18;100.00;46715.09;5013090;28;20283;-67
2022/11/13 06:33:57;;;;;;;13.00;8.83;;;;;;;-145.18;100.00;46715.09;5024004;28;20704;-68
2022/11/13 06:36:33;;;;;;;13.90;8.53;;;;;;;-145.18;100.00;46717.03;5032258;28;20274;-68
2022/11/13 06:38:59;;;;;;;13.73;8.60;;;;;;;-145.18;100.00;46715.09;5032194;28;20267;-67
2022/11/13 06:41:28;;;;;;;15.33;8.20;;;;;;;-145.18;100.00;46715.09;5032299;28;20298;-67
2022/11/13 06:43:54;;;;;;;14.57;9.33;;;;;;;-145.18;100.00;46715.09;5031889;28;20033;-67
2022/11/13 06:46:22;;;;;;;15.67;8.80;;;;;;;-145.18;100.00;46719.00;5032555;28;20266;-68
2022/11/13 06:48:48;;;;;;;17.63;9.30;;;;;;;-145.18;100.00;46711.19;5031768;28;20285;-67
2022/11/13 06:51:20;;;;;;;14.43;9.03;;;;;;;-145.18;100.00;46717.03;5032187;28;20370;-67
2022/11/13 06:53:46;;;;;;;12.87;8.70;;;;;;;-145.18;100.00;46715.09;5031801;28;20345;-67
2022/11/13 06:56:12;;;;;;;13.40;8.70;;;;;;;-145.18;100.00;46715.09;5032236;28;20294;-67
2022/11/13 06:58:37;;;;;;;12.53;9.07;;;;;;;-145.18;100.00;46719.00;5031908;28;20362;-67
2022/11/13 07:01:13;;;;;;;14.53;8.87;;;;;;;-145.18;100.00;46719.00;5031573;28;20034;-68
2022/11/13 07:03:39;;;;;;;14.33;9.57;;;;;;;-145.18;100.00;46709.22;5031200;28;20053;-67
2022/11/13 07:06:07;;;;;;;13.90;9.63;;;;;;;-145.18;100.00;46711.19;5029656;28;20282;-67
2022/11/13 07:08:33;;;;;;;16.40;9.73;;;;;;;-145.18;100.00;46715.09;5026305;28;20018;-68
2022/11/13 07:10:59;;;;;;;14.97;9.07;;;;;;;-145.18;100.00;46717.03;5033460;28;20274;-68
2022/11/13 07:13:26;;;;;;;15.37;9.03;;;;;;;-145.18;100.00;46717.03;5021512;28;20025;-68
2022/11/13 07:15:51;;;;;;;13.03;9.03;;;;;;;-145.18;100.00;46713.13;5030319;28;20262;-68
2022/11/13 07:18:17;;;;;;;14.57;8.87;;;;;;;-145.18;100.00;46707.28;5036199;28;20271;-68
2022/11/13 07:20:43;;;;;;;12.17;8.63;;;;;;;-145.18;100.00;46703.38;5031019;28;20029;-68
2022/11/13 07:23:08;;;;;;;13.17;9.17;;;;;;;-145.18;100.00;46705.31;5031064;28;20052;-68
2022/11/13 07:25:34;;;;;;;11.53;8.40;;;;;;;-145.18;100.00;46707.28;5031297;28;20072;-68
2022/11/13 07:28:00;;;;;;;14.90;8.83;;;;;;;-145.18;100.00;46701.41;5031107;28;20033;-68
2022/11/13 07:30:26;;;;;;;15.07;8.23;;;;;;;-145.18;100.00;46713.13;5027165;28;20270;-68
2022/11/13 07:32:51;;;;;;;11.90;7.87;;;;;;;-145.18;100.00;46703.38;5039441;28;20033;-68
2022/11/13 07:35:17;;;;;;;12.43;8.87;;;;;;;-145.18;100.00;46705.31;5031236;28;20354;-68
2022/11/13 07:37:43;;;;;;;14.77;9.03;;;;;;;-145.18;100.00;46703.38;5026266;28;20036;-68
2022/11/13 07:40:10;;;;;;;14.47;9.60;;;;;;;-145.18;100.00;46703.38;5033050;28;20033;-68
2022/11/13 07:42:35;;;;;;;13.93;9.07;;;;;;;-145.18;100.00;46703.38;5040244;28;20037;-68
2022/11/13 07:45:00;;;;;;;12.43;8.87;;;;;;;-145.18;100.00;46705.31;5011754;28;20349;-68
2022/11/13 07:47:26;;;;;;;12.90;8.43;;;;;;;-145.18;100.00;46703.38;5031234;28;20052;-68
2022/11/13 07:49:52;;;;;;;13.03;8.67;;;;;;;-145.18;100.00;46707.28;5030514;28;20036;-68
2022/11/13 07:52:17;;;;;;;13.50;8.97;;;;;;;-145.18;100.00;46711.19;5030962;28;20037;-68
2022/11/13 07:54:43;;;;;;;15.20;8.73;;;;;;;-145.18;100.00;46703.38;5030725;28;20083;-68
2022/11/13 07:57:09;;;;;;;20.03;9.83;;;;;;;-145.18;100.00;46709.22;5030584;28;20482;-68
2022/11/13 07:59:34;;;;;;;14.63;9.53;;;;;;;-145.18;100.00;46699.47;5030490;28;20385;-68
2022/11/13 08:02:00;;;;;;;14.30;9.27;;;;;;;-145.18;100.00;46703.38;5046515;28;20041;-68
2022/11/13 08:04:25;;;;;;;11.93;9.07;;;;;;;-145.18;100.00;46697.50;5050331;28;20041;-68
2022/11/13 08:06:51;;;;;;;25.90;10.13;;;;;;;-145.18;100.00;46695.56;5050220;28;20033;-68
2022/11/13 08:09:17;;;;;;;13.67;10.20;;;;;;;-145.18;100.00;46697.50;5049563;28;20072;-67
2022/11/13 08:11:42;;;;;;;16.03;9.90;;;;;;;-145.18;100.00;46695.56;5028777;28;20700;-67
2022/11/13 08:14:09;;;;;;;14.27;10.33;;;;;;;-145.18;100.00;46695.56;5028744;28;20440;-67
2022/11/13 08:16:35;;;;;;;14.27;10.17;;;;;;;-145.18;100.00;46695.56;5010912;28;20038;-68
2022/11/13 08:19:01;;;;;;;15.57;10.57;;;;;;;-145.18;100.00;46689.69;5010223;28;20290;-67
2022/11/13 08:21:26;;;;;;;14.10;10.10;;;;;;;-145.18;100.00;46689.69;5009039;28;20059;-68
2022/11/13 08:23:51;;;;;;;13.53;9.60;;;;;;;-145.18;100.00;46685.78;5028909;28;20810;-67
2022/11/13 08:26:17;;;;;;;12.10;9.30;;;;;;;-145.18;100.00;46685.78;5028408;28;20654;-68
2022/11/13 08:28:43;;;;;;;12.57;9.23;;;;;;;-145.18;100.00;46687.75;5029221;28;20121;-67
2022/11/13 08:31:11;;;;;;;13.57;9.30;;;;;;;-145.18;100.00;46683.84;5029170;28;20437;-68
2022/11/13 08:33:37;;;;;;;12.73;9.00;;;;;;;-145.18;100.00;46683.84;5028945;28;20030;-68
2022/11/13 08:36:02;;;;;;;13.63;9.57;;;;;;;-145.18;100.00;46672.13;5028888;28;20278;-68
2022/11/13 08:38:28;;;;;;;15.53;9.70;;;;;;;-145.18;100.00;46668.22;5030086;28;20091;-68
2022/11/13 08:40:57;;;;;;;13.67;9.83;;;;;;;-145.18;100.00;46660.41;5030009;28;20125;-67
2022/11/13 08:43:23;;;;;;;14.87;9.60;;;;;;;-145.18;100.00;46656.50;5027177;28;20444;-68
2022/11/13 08:45:48;;;;;;;12.77;8.93;;;;;;;-145.18;100.00;46656.50;5021294;28;20275;-68
2022/11/13 08:48:13;;;;;;;14.37;9.50;;;;;;;-145.18;100.00;46652.59;5008765;28;20220;-68
2022/11/13 08:50:39;;;;;;;12.63;10.27;;;;;;;-145.18;100.00;46646.72;5010357;28;20030;-68
2022/11/13 08:53:05;;;;;;;12.80;9.77;;;;;;;-145.18;100.00;46636.94;5007962;28;20033;-68
2022/11/13 08:55:32;;;;;;;15.17;9.87;;;;;;;-145.18;100.00;46629.13;5010664;28;20105;-68
2022/11/13 08:57:59;;;;;;;12.60;9.60;;;;;;;-145.18;100.00;46619.38;5010007;28;20022;-68
2022/11/13 09:00:26;;;;;;;13.50;8.87;;;;;;;-145.18;100.00;46603.75;5010531;28;20279;-68
2022/11/13 09:02:54;;;;;;;11.63;8.80;;;;;;;-145.18;100.00;46593.97;5009597;28;20790;-68
2022/11/13 09:05:19;;;;;;;14.17;9.03;;;;;;;-145.18;100.00;46588.13;5009495;28;20359;-68
2022/11/13 09:07:44;;;;;;;11.40;9.03;;;;;;;-145.18;100.00;46576.41;5008904;28;20358;-68
2022/11/13 09:10:10;;;;;;;14.10;9.27;;;;;;;-145.18;100.00;46568.59;5010084;28;20040;-68
2022/11/13 09:12:35;;;;;;;13.40;8.43;;;;;;;-145.18;100.00;46564.69;5010542;28;20525;-68
2022/11/13 09:15:00;;;;;;;12.13;9.47;;;;;;;-145.18;100.00;46572.50;5010124;28;20072;-68
2022/11/13 09:17:26;;;;;;;12.10;8.90;;;;;;;-145.18;100.00;46574.44;5010254;28;20062;-68
2022/11/13 09:19:51;;;;;;;10.73;7.93;;;;;;;-145.18;100.00;46593.97;5009585;28;20037;-68
2022/11/13 09:22:16;;;;;;;11.23;8.73;;;;;;;-145.18;100.00;46601.78;5010125;28;20049;-69
2022/11/13 09:24:42;;;;;;;12.57;9.10;;;;;;;-145.18;100.00;46609.59;5011970;28;20037;-68
2022/11/13 09:27:07;;;;;;;12.73;8.80;;;;;;;-145.18;100.00;46615.47;5028140;28;20021;-69
2022/11/13 09:29:34;;;;;;;15.67;9.70;;;;;;;-145.18;100.00;46605.69;5030925;28;20490;-69
2022/11/13 09:31:59;;;;;;;14.63;9.40;;;;;;;-145.18;100.00;46615.47;5022087;28;20108;-68
2022/11/13 09:34:26;;;;;;;14.97;10.10;;;;;;;-145.18;100.00;46617.41;5031615;28;20362;-68
2022/11/13 09:36:52;;;;;;;12.17;8.97;;;;;;;-145.18;100.00;46617.41;5027548;28;20021;-69
2022/11/13 09:39:17;;;;;;;13.10;9.20;;;;;;;-145.18;100.00;46617.41;5029693;28;20128;-68
2022/11/13 09:41:44;;;;;;;14.20;9.27;;;;;;;-145.18;100.00;46644.78;5032817;28;20132;-69
2022/11/13 09:44:23;;;;;;;12.00;8.47;;;;;;;-145.18;100.00;46660.41;5032496;28;20033;-69
2022/11/13 09:46:52;;;;;;;17.23;9.53;;;;;;;-145.18;100.00;46648.69;5032850;28;20037;-69
2022/11/13 09:49:28;;;;;;;11.87;9.00;;;;;;;-145.18;100.00;46654.53;5033141;28;20557;-69
2022/11/13 09:52:04;;;;;;;17.67;8.60;;;;;;;-145.18;100.00;46683.84;5032017;28;20433;-69
2022/11/13 09:54:30;;;;;;;11.60;8.40;;;;;;;-145.18;100.00;46707.28;5031551;28;20033;-69
2022/11/13 09:57:05;;;;;;;13.20;8.30;;;;;;;-145.18;100.00;46717.03;5031773;28;20034;-69
2022/11/13 09:59:40;;;;;;;10.63;7.93;;;;;;;-145.18;100.00;46720.94;5033099;28;20053;-69
2022/11/13 10:02:33;;;;;;;11.10;7.97;;;;;;;-145.18;100.00;46771.75;5032845;28;20106;-69
2022/11/13 10:05:13;;;;;;;11.57;8.50;;;;;;;-145.18;100.00;46771.75;5032466;28;20065;-69
2022/11/13 10:08:03;;;;;;;13.57;8.27;;;;;;;-145.18;100.00;46799.09;5033128;28;20120;-69
2022/11/13 10:10:54;;;;;;;10.93;8.00;;;;;;;-145.18;100.00;46793.22;5031992;28;20030;-69
2022/11/13 10:13:30;;;;;;;15.70;8.10;;;;;;;-145.18;100.00;46783.47;5014891;28;20510;-69
2022/11/13 10:16:13;;;;;;;12.10;7.70;;;;;;;-145.18;100.00;46806.91;5052256;28;20040;-69
2022/11/13 10:18:39;;;;;;;12.00;7.93;;;;;;;-145.18;100.00;46804.94;5051936;28;20025;-69
2022/11/13 10:21:16;;;;;;;10.70;7.90;;;;;;;-145.18;100.00;46849.88;5052264;28;20029;-70
2022/11/13 10:23:46;;;;;;;11.73;8.20;;;;;;;-145.18;100.00;46881.13;5050612;28;20326;-69
2022/11/13 10:26:20;;;;;;;10.77;7.90;;;;;;;-145.18;100.00;46881.13;5032500;28;20033;-69
2022/11/13 10:28:53;;;;;;;9.90;8.20;;;;;;;-145.18;100.00;46859.63;5030629;28;20075;-70
2022/11/13 10:31:18;;;;;;;14.20;8.33;;;;;;;-145.18;100.00;46816.66;5031221;28;20068;-69
2022/11/13 10:33:44;;;;;;;14.63;9.33;;;;;;;-145.18;100.00;46824.47;5031393;28;20068;-69
2022/11/13 10:36:23;;;;;;;14.00;8.93;;;;;;;-145.18;100.00;46816.66;5032336;28;20033;-69
2022/11/13 10:39:04;;;;;;;12.80;9.03;;;;;;;-145.18;100.00;46824.47;5031741;28;20095;-69
2022/11/13 10:41:29;;;;;;;15.53;9.27;;;;;;;-145.18;100.00;46797.13;5031868;28;20112;-69
2022/11/13 10:44:01;;;;;;;12.57;8.13;;;;;;;-145.18;100.00;46799.09;5034114;28;20116;-70
2022/11/13 10:46:29;;;;;;;10.90;8.20;;;;;;;-145.18;100.00;46808.84;5052202;28;20091;-69
2022/11/13 10:49:09;;;;;;;13.30;9.50;;;;;;;-145.18;100.00;46803.00;5051421;28;20040;-70
2022/11/13 10:51:35;;;;;;;11.67;8.27;;;;;;;-145.18;100.00;46853.78;5052096;28;20025;-69
2022/11/13 10:54:19;;;;;;;11.67;8.43;;;;;;;-145.18;100.00;46869.41;5051310;28;20033;-70
2022/11/13 10:57:05;;;;;;;11.00;8.50;;;;;;;-145.18;100.00;46990.53;5051730;28;20057;-70
2022/11/13 10:59:39;;;;;;;12.95;8.57;;;;;;;-145.18;100.00;47101.88;5038855;28;20485;-70